Allenport, Pennsylvania
Current Conditions -  °F | °C
As of 4:53 AM on Wednesday 22 Oct 2014 (Local Time) from KAGC Reporting Station
Overcast Overcast  
Wind Chill: 43°   Ceiling: 1100
Heat Index: 47°   Visibility: 10mi
Dew Point: 43°   Wind: 8mph
Humidity: 86%   Direction: 340°NNW
Pressure: 30.04"   Gusts: 17mph
Location:  40.1°N, 79.85°W
Report Text: KAGC 220853Z 34007G15KT 10SM OVC011 08/06 A3004 RMK AO2 SLP179 60001 T00830061 53009
Loading
Personal Weather Stations






























Interactive Weather Map New forecast layout! Learn more

10-Day Weather Forecast

Advertisements
Track Severe Weather on mobile